sensor_id;sensor_type;location;lat;lon;timestamp;temperature;humidity
10788;DHT22;5446;50.826;4.380;2022-12-07T00:00:54;4.90;99.90
10788;DHT22;5446;50.826;4.380;2022-12-07T00:03:20;4.90;99.90
10788;DHT22;5446;50.826;4.380;2022-12-07T00:05:46;4.90;99.90
10788;DHT22;5446;50.826;4.380;2022-12-07T00:08:11;4.90;99.90
10788;DHT22;5446;50.826;4.380;2022-12-07T00:10:37;4.80;99.90
10788;DHT22;5446;50.826;4.380;2022-12-07T00:13:03;4.70;99.90
10788;DHT22;5446;50.826;4.380;2022-12-07T00:15:28;4.70;99.90
10788;DHT22;5446;50.826;4.380;2022-12-07T00:17:54;4.70;99.90
10788;DHT22;5446;50.826;4.380;2022-12-07T00:20:20;4.60;99.90
10788;DHT22;5446;50.826;4.380;2022-12-07T00:22:45;4.60;99.90
10788;DHT22;5446;50.826;4.380;2022-12-07T00:25:11;4.60;99.90
10788;DHT22;5446;50.826;4.380;2022-12-07T00:27:36;4.50;99.90
10788;DHT22;5446;50.826;4.380;2022-12-07T00:30:02;4.50;99.90
10788;DHT22;5446;50.826;4.380;2022-12-07T00:32:28;4.50;99.90
10788;DHT22;5446;50.826;4.380;2022-12-07T00:34:54;4.40;99.90
10788;DHT22;5446;50.826;4.380;2022-12-07T00:37:19;4.40;99.90
10788;DHT22;5446;50.826;4.380;2022-12-07T00:39:46;4.40;99.90
10788;DHT22;5446;50.826;4.380;2022-12-07T00:42:11;4.40;99.90
10788;DHT22;5446;50.826;4.380;2022-12-07T00:44:37;4.30;99.90
10788;DHT22;5446;50.826;4.380;2022-12-07T00:47:03;4.30;99.90
10788;DHT22;5446;50.826;4.380;2022-12-07T00:49:28;4.30;99.90
10788;DHT22;5446;50.826;4.380;2022-12-07T00:51:54;4.30;99.90
10788;DHT22;5446;50.826;4.380;2022-12-07T00:54:20;4.30;99.90
10788;DHT22;5446;50.826;4.380;2022-12-07T00:56:45;4.20;99.90
10788;DHT22;5446;50.826;4.380;2022-12-07T00:59:13;4.20;99.90
10788;DHT22;5446;50.826;4.380;2022-12-07T01:01:41;4.20;99.90
10788;DHT22;5446;50.826;4.380;2022-12-07T01:04:07;4.20;99.90
10788;DHT22;5446;50.826;4.380;2022-12-07T01:06:33;4.20;99.90
10788;DHT22;5446;50.826;4.380;2022-12-07T01:08:59;4.20;99.90
10788;DHT22;5446;50.826;4.380;2022-12-07T01:11:27;4.20;99.90
10788;DHT22;5446;50.826;4.380;2022-12-07T01:13:55;4.20;99.90
10788;DHT22;5446;50.826;4.380;2022-12-07T01:16:26;4.10;99.90
10788;DHT22;5446;50.826;4.380;2022-12-07T01:18:53;4.10;99.90
10788;DHT22;5446;50.826;4.380;2022-12-07T01:21:26;4.10;99.90
10788;DHT22;5446;50.826;4.380;2022-12-07T01:23:52;4.10;99.90
10788;DHT22;5446;50.826;4.380;2022-12-07T01:26:21;4.00;99.90
10788;DHT22;5446;50.826;4.380;2022-12-07T01:28:47;4.00;99.90
10788;DHT22;5446;50.826;4.380;2022-12-07T01:31:16;4.10;99.90
10788;DHT22;5446;50.826;4.380;2022-12-07T01:33:44;4.10;99.90
10788;DHT22;5446;50.826;4.380;2022-12-07T01:36:24;4.10;99.90
10788;DHT22;5446;50.826;4.380;2022-12-07T01:38:52;4.10;99.90
10788;DHT22;5446;50.826;4.380;2022-12-07T01:41:20;4.10;99.90
10788;DHT22;5446;50.826;4.380;2022-12-07T01:44:16;4.20;99.90
10788;DHT22;5446;50.826;4.380;2022-12-07T01:49:37;4.10;99.90
10788;DHT22;5446;50.826;4.380;2022-12-07T01:52:39;4.20;99.90
10788;DHT22;5446;50.826;4.380;2022-12-07T01:55:08;4.20;99.90
10788;DHT22;5446;50.826;4.380;2022-12-07T01:57:37;4.20;99.90
10788;DHT22;5446;50.826;4.380;2022-12-07T02:00:06;4.20;99.90
10788;DHT22;5446;50.826;4.380;2022-12-07T02:02:39;4.20;99.90
10788;DHT22;5446;50.826;4.380;2022-12-07T02:05:07;4.20;99.90
10788;DHT22;5446;50.826;4.380;2022-12-07T02:07:34;4.30;99.90
10788;DHT22;5446;50.826;4.380;2022-12-07T02:10:18;4.30;99.90
10788;DHT22;5446;50.826;4.380;2022-12-07T02:12:45;4.30;99.90
10788;DHT22;5446;50.826;4.380;2022-12-07T02:15:12;4.30;99.90
10788;DHT22;5446;50.826;4.380;2022-12-07T02:31:04;4.50;99.90
10788;DHT22;5446;50.826;4.380;2022-12-07T02:33:36;4.50;99.90
10788;DHT22;5446;50.826;4.380;2022-12-07T02:39:10;4.50;99.90
10788;DHT22;5446;50.826;4.380;2022-12-07T02:41:52;4.60;99.90
10788;DHT22;5446;50.826;4.380;2022-12-07T02:44:23;4.60;99.90
10788;DHT22;5446;50.826;4.380;2022-12-07T02:46:54;4.60;99.90
10788;DHT22;5446;50.826;4.380;2022-12-07T02:49:22;4.60;99.90
10788;DHT22;5446;50.826;4.380;2022-12-07T02:51:49;4.60;99.90
10788;DHT22;5446;50.826;4.380;2022-12-07T02:54:17;4.60;99.90
10788;DHT22;5446;50.826;4.380;2022-12-07T03:05:12;4.40;99.90
10788;DHT22;5446;50.826;4.380;2022-12-07T03:10:39;4.40;99.90
10788;DHT22;5446;50.826;4.380;2022-12-07T03:18:30;4.20;99.90
10788;DHT22;5446;50.826;4.380;2022-12-07T03:21:02;4.10;99.90
10788;DHT22;5446;50.826;4.380;2022-12-07T03:23:33;4.10;99.90
10788;DHT22;5446;50.826;4.380;2022-12-07T03:26:01;4.10;99.90
10788;DHT22;5446;50.826;4.380;2022-12-07T03:28:33;4.10;99.90
10788;DHT22;5446;50.826;4.380;2022-12-07T03:31:09;4.10;99.90
10788;DHT22;5446;50.826;4.380;2022-12-07T03:34:14;4.10;99.90
10788;DHT22;5446;50.826;4.380;2022-12-07T03:36:55;4.10;99.90
10788;DHT22;5446;50.826;4.380;2022-12-07T03:39:39;4.10;99.90
10788;DHT22;5446;50.826;4.380;2022-12-07T03:42:07;4.10;99.90
10788;DHT22;5446;50.826;4.380;2022-12-07T03:44:35;4.20;99.90
10788;DHT22;5446;50.826;4.380;2022-12-07T03:47:06;4.20;99.90
10788;DHT22;5446;50.826;4.380;2022-12-07T03:49:47;4.10;99.90
10788;DHT22;5446;50.826;4.380;2022-12-07T03:54:59;4.10;99.90
10788;DHT22;5446;50.826;4.380;2022-12-07T03:57:26;4.00;99.90
10788;DHT22;5446;50.826;4.380;2022-12-07T03:59:55;4.00;99.90
10788;DHT22;5446;50.826;4.380;2022-12-07T04:02:22;3.90;99.90
10788;DHT22;5446;50.826;4.380;2022-12-07T04:04:49;3.90;99.90
10788;DHT22;5446;50.826;4.380;2022-12-07T04:07:15;3.90;99.90
10788;DHT22;5446;50.826;4.380;2022-12-07T04:09:40;3.90;99.90
10788;DHT22;5446;50.826;4.380;2022-12-07T04:12:06;3.90;99.90
10788;DHT22;5446;50.826;4.380;2022-12-07T04:14:32;3.90;99.90
10788;DHT22;5446;50.826;4.380;2022-12-07T04:16:59;3.90;99.90
10788;DHT22;5446;50.826;4.380;2022-12-07T04:19:27;3.90;99.90
10788;DHT22;5446;50.826;4.380;2022-12-07T04:21:54;3.90;99.90
10788;DHT22;5446;50.826;4.380;2022-12-07T04:24:20;3.90;99.90
10788;DHT22;5446;50.826;4.380;2022-12-07T04:26:46;3.90;99.90
10788;DHT22;5446;50.826;4.380;2022-12-07T04:29:13;3.90;99.90
10788;DHT22;5446;50.826;4.380;2022-12-07T04:31:39;3.80;99.90
10788;DHT22;5446;50.826;4.380;2022-12-07T04:34:06;3.80;99.90
10788;DHT22;5446;50.826;4.380;2022-12-07T04:36:32;3.80;99.90
10788;DHT22;5446;50.826;4.380;2022-12-07T04:38:58;3.80;99.90
10788;DHT22;5446;50.826;4.380;2022-12-07T04:41:24;3.80;99.90
10788;DHT22;5446;50.826;4.380;2022-12-07T04:43:57;3.90;99.90
10788;DHT22;5446;50.826;4.380;2022-12-07T04:46:24;3.90;99.90
10788;DHT22;5446;50.826;4.380;2022-12-07T04:48:52;3.90;99.90
10788;DHT22;5446;50.826;4.380;2022-12-07T04:51:24;3.90;99.90
10788;DHT22;5446;50.826;4.380;2022-12-07T04:53:50;4.00;99.90
10788;DHT22;5446;50.826;4.380;2022-12-07T04:56:16;4.00;99.90
10788;DHT22;5446;50.826;4.380;2022-12-07T04:58:44;4.00;99.90
10788;DHT22;5446;50.826;4.380;2022-12-07T05:01:10;4.10;99.90
10788;DHT22;5446;50.826;4.380;2022-12-07T05:03:36;4.10;99.90
10788;DHT22;5446;50.826;4.380;2022-12-07T05:06:03;4.10;99.90
10788;DHT22;5446;50.826;4.380;2022-12-07T05:08:29;4.00;99.90
10788;DHT22;5446;50.826;4.380;2022-12-07T05:10:55;4.00;99.90
10788;DHT22;5446;50.826;4.380;2022-12-07T05:13:21;4.00;99.90
10788;DHT22;5446;50.826;4.380;2022-12-07T05:15:47;3.90;99.90
10788;DHT22;5446;50.826;4.380;2022-12-07T05:18:14;3.90;99.90
10788;DHT22;5446;50.826;4.380;2022-12-07T05:20:41;3.90;99.90
10788;DHT22;5446;50.826;4.380;2022-12-07T05:23:06;3.90;99.90
10788;DHT22;5446;50.826;4.380;2022-12-07T05:25:33;3.90;99.90
10788;DHT22;5446;50.826;4.380;2022-12-07T05:27:59;3.90;99.90
10788;DHT22;5446;50.826;4.380;2022-12-07T05:30:25;3.90;99.90
10788;DHT22;5446;50.826;4.380;2022-12-07T05:32:51;3.90;99.90
10788;DHT22;5446;50.826;4.380;2022-12-07T05:35:18;4.00;99.90
10788;DHT22;5446;50.826;4.380;2022-12-07T05:37:43;4.00;99.90
10788;DHT22;5446;50.826;4.380;2022-12-07T05:40:10;4.00;99.90
10788;DHT22;5446;50.826;4.380;2022-12-07T05:42:36;4.00;99.90
10788;DHT22;5446;50.826;4.380;2022-12-07T05:45:02;4.00;99.90
10788;DHT22;5446;50.826;4.380;2022-12-07T05:47:29;4.10;99.90
10788;DHT22;5446;50.826;4.380;2022-12-07T05:49:55;4.10;99.90
10788;DHT22;5446;50.826;4.380;2022-12-07T05:52:21;4.10;99.90
10788;DHT22;5446;50.826;4.380;2022-12-07T05:54:47;4.00;99.90
10788;DHT22;5446;50.826;4.380;2022-12-07T05:57:13;4.00;99.90
10788;DHT22;5446;50.826;4.380;2022-12-07T05:59:39;4.00;99.90
10788;DHT22;5446;50.826;4.380;2022-12-07T06:02:14;4.00;99.90
10788;DHT22;5446;50.826;4.380;2022-12-07T06:04:43;4.00;99.90
10788;DHT22;5446;50.826;4.380;2022-12-07T06:07:09;4.10;99.90
10788;DHT22;5446;50.826;4.380;2022-12-07T06:09:36;4.00;99.90
10788;DHT22;5446;50.826;4.380;2022-12-07T06:12:03;4.00;99.90
10788;DHT22;5446;50.826;4.380;2022-12-07T06:14:47;4.00;99.90
10788;DHT22;5446;50.826;4.380;2022-12-07T06:17:13;4.10;99.90
10788;DHT22;5446;50.826;4.380;2022-12-07T06:19:40;4.10;99.90
10788;DHT22;5446;50.826;4.380;2022-12-07T06:22:06;4.10;99.90
10788;DHT22;5446;50.826;4.380;2022-12-07T06:24:33;4.10;99.90
10788;DHT22;5446;50.826;4.380;2022-12-07T06:26:59;4.10;99.90
10788;DHT22;5446;50.826;4.380;2022-12-07T06:29:25;4.00;99.90
10788;DHT22;5446;50.826;4.380;2022-12-07T06:31:51;4.10;99.90
10788;DHT22;5446;50.826;4.380;2022-12-07T06:34:18;4.00;99.90
10788;DHT22;5446;50.826;4.380;2022-12-07T06:36:45;4.00;99.90
10788;DHT22;5446;50.826;4.380;2022-12-07T06:39:11;4.10;99.90
10788;DHT22;5446;50.826;4.380;2022-12-07T06:41:37;4.10;99.90
10788;DHT22;5446;50.826;4.380;2022-12-07T06:44:04;4.10;99.90
10788;DHT22;5446;50.826;4.380;2022-12-07T06:46:30;4.10;99.90
10788;DHT22;5446;50.826;4.380;2022-12-07T06:48:56;4.20;99.90
10788;DHT22;5446;50.826;4.380;2022-12-07T06:51:22;4.20;99.90
10788;DHT22;5446;50.826;4.380;2022-12-07T06:53:47;4.20;99.90
10788;DHT22;5446;50.826;4.380;2022-12-07T06:56:13;4.30;99.90
10788;DHT22;5446;50.826;4.380;2022-12-07T06:58:39;4.30;99.90
10788;DHT22;5446;50.826;4.380;2022-12-07T07:01:17;4.40;99.90
10788;DHT22;5446;50.826;4.380;2022-12-07T07:03:43;4.30;99.90
10788;DHT22;5446;50.826;4.380;2022-12-07T07:06:09;4.40;99.90
10788;DHT22;5446;50.826;4.380;2022-12-07T07:08:36;4.40;99.90
10788;DHT22;5446;50.826;4.380;2022-12-07T07:11:02;4.30;99.90
10788;DHT22;5446;50.826;4.380;2022-12-07T07:13:28;4.30;99.90
10788;DHT22;5446;50.826;4.380;2022-12-07T07:15:54;4.30;99.90
10788;DHT22;5446;50.826;4.380;2022-12-07T07:18:20;4.30;99.90
10788;DHT22;5446;50.826;4.380;2022-12-07T07:20:45;4.30;99.90
10788;DHT22;5446;50.826;4.380;2022-12-07T07:23:11;4.30;99.90
10788;DHT22;5446;50.826;4.380;2022-12-07T07:25:37;4.30;99.90
10788;DHT22;5446;50.826;4.380;2022-12-07T07:28:03;4.30;99.90
10788;DHT22;5446;50.826;4.380;2022-12-07T07:30:29;4.40;99.90
10788;DHT22;5446;50.826;4.380;2022-12-07T07:32:59;4.30;99.90
10788;DHT22;5446;50.826;4.380;2022-12-07T07:35:26;4.30;99.90
10788;DHT22;5446;50.826;4.380;2022-12-07T07:37:52;4.40;99.90
10788;DHT22;5446;50.826;4.380;2022-12-07T07:40:18;4.40;99.90
10788;DHT22;5446;50.826;4.380;2022-12-07T07:42:43;4.40;99.90
10788;DHT22;5446;50.826;4.380;2022-12-07T07:45:09;4.40;99.90
10788;DHT22;5446;50.826;4.380;2022-12-07T07:47:35;4.40;99.90
10788;DHT22;5446;50.826;4.380;2022-12-07T07:50:01;4.40;99.90
10788;DHT22;5446;50.826;4.380;2022-12-07T07:52:27;4.40;99.90
10788;DHT22;5446;50.826;4.380;2022-12-07T07:54:53;4.50;99.90
10788;DHT22;5446;50.826;4.380;2022-12-07T07:57:19;4.50;99.90
10788;DHT22;5446;50.826;4.380;2022-12-07T07:59:44;4.50;99.90
10788;DHT22;5446;50.826;4.380;2022-12-07T08:02:18;4.50;99.90
10788;DHT22;5446;50.826;4.380;2022-12-07T08:04:44;4.50;99.90
10788;DHT22;5446;50.826;4.380;2022-12-07T08:07:11;4.50;99.90
10788;DHT22;5446;50.826;4.380;2022-12-07T08:09:37;4.50;99.90
10788;DHT22;5446;50.826;4.380;2022-12-07T08:12:03;4.40;99.90
10788;DHT22;5446;50.826;4.380;2022-12-07T08:14:29;4.40;99.90
10788;DHT22;5446;50.826;4.380;2022-12-07T08:16:55;4.40;99.90
10788;DHT22;5446;50.826;4.380;2022-12-07T08:19:21;4.40;99.90
10788;DHT22;5446;50.826;4.380;2022-12-07T08:21:46;4.40;99.90
10788;DHT22;5446;50.826;4.380;2022-12-07T08:24:13;4.40;99.90
10788;DHT22;5446;50.826;4.380;2022-12-07T08:26:39;4.30;99.90
10788;DHT22;5446;50.826;4.380;2022-12-07T08:29:04;4.30;99.90
10788;DHT22;5446;50.826;4.380;2022-12-07T08:31:30;4.20;99.90
10788;DHT22;5446;50.826;4.380;2022-12-07T08:33:56;4.20;99.90
10788;DHT22;5446;50.826;4.380;2022-12-07T08:36:22;4.20;99.90
10788;DHT22;5446;50.826;4.380;2022-12-07T08:38:49;4.20;99.90
10788;DHT22;5446;50.826;4.380;2022-12-07T08:41:14;4.20;99.90
10788;DHT22;5446;50.826;4.380;2022-12-07T08:43:40;4.10;99.90
10788;DHT22;5446;50.826;4.380;2022-12-07T08:46:13;4.20;99.90
10788;DHT22;5446;50.826;4.380;2022-12-07T08:48:52;4.20;99.90
10788;DHT22;5446;50.826;4.380;2022-12-07T08:51:19;4.30;99.90
10788;DHT22;5446;50.826;4.380;2022-12-07T08:53:46;4.40;99.90
10788;DHT22;5446;50.826;4.380;2022-12-07T08:56:12;4.40;99.90
10788;DHT22;5446;50.826;4.380;2022-12-07T08:58:38;4.50;99.90
10788;DHT22;5446;50.826;4.380;2022-12-07T09:01:04;4.60;99.90
10788;DHT22;5446;50.826;4.380;2022-12-07T09:03:30;4.60;99.90
10788;DHT22;5446;50.826;4.380;2022-12-07T09:05:57;4.80;99.90
10788;DHT22;5446;50.826;4.380;2022-12-07T09:08:26;4.80;99.90
10788;DHT22;5446;50.826;4.380;2022-12-07T09:10:54;4.90;99.90
10788;DHT22;5446;50.826;4.380;2022-12-07T09:13:20;5.00;99.90
10788;DHT22;5446;50.826;4.380;2022-12-07T09:15:46;5.10;99.90
10788;DHT22;5446;50.826;4.380;2022-12-07T09:18:11;5.10;99.90
10788;DHT22;5446;50.826;4.380;2022-12-07T09:20:37;5.20;99.90
10788;DHT22;5446;50.826;4.380;2022-12-07T09:23:06;5.30;99.90
10788;DHT22;5446;50.826;4.380;2022-12-07T09:25:33;5.40;99.90
10788;DHT22;5446;50.826;4.380;2022-12-07T09:27:59;5.50;99.90
10788;DHT22;5446;50.826;4.380;2022-12-07T09:30:26;5.40;99.90
10788;DHT22;5446;50.826;4.380;2022-12-07T09:32:56;5.50;99.90
10788;DHT22;5446;50.826;4.380;2022-12-07T09:35:23;5.50;99.90
10788;DHT22;5446;50.826;4.380;2022-12-07T09:37:49;5.60;99.90
10788;DHT22;5446;50.826;4.380;2022-12-07T09:40:16;5.60;99.90
10788;DHT22;5446;50.826;4.380;2022-12-07T09:42:46;5.70;99.90
10788;DHT22;5446;50.826;4.380;2022-12-07T09:45:39;5.70;99.90
10788;DHT22;5446;50.826;4.380;2022-12-07T09:48:05;5.70;99.90
10788;DHT22;5446;50.826;4.380;2022-12-07T09:50:31;5.70;99.90
10788;DHT22;5446;50.826;4.380;2022-12-07T09:53:24;5.70;99.90
10788;DHT22;5446;50.826;4.380;2022-12-07T09:55:50;5.70;99.90
10788;DHT22;5446;50.826;4.380;2022-12-07T09:58:23;5.80;99.90
10788;DHT22;5446;50.826;4.380;2022-12-07T10:03:48;5.80;99.90
10788;DHT22;5446;50.826;4.380;2022-12-07T10:06:15;5.70;99.90
10788;DHT22;5446;50.826;4.380;2022-12-07T10:08:40;5.80;99.90
10788;DHT22;5446;50.826;4.380;2022-12-07T10:11:09;5.80;99.90
10788;DHT22;5446;50.826;4.380;2022-12-07T10:13:41;5.90;99.90
10788;DHT22;5446;50.826;4.380;2022-12-07T10:18:49;5.90;99.90
10788;DHT22;5446;50.826;4.380;2022-12-07T10:21:18;5.90;99.90
10788;DHT22;5446;50.826;4.380;2022-12-07T10:24:05;5.90;99.90
10788;DHT22;5446;50.826;4.380;2022-12-07T10:29:30;5.90;99.90
10788;DHT22;5446;50.826;4.380;2022-12-07T10:32:04;5.90;99.90
10788;DHT22;5446;50.826;4.380;2022-12-07T10:34:33;5.90;99.90
10788;DHT22;5446;50.826;4.380;2022-12-07T10:39:51;6.00;99.90
10788;DHT22;5446;50.826;4.380;2022-12-07T10:44:43;6.00;99.90
10788;DHT22;5446;50.826;4.380;2022-12-07T10:47:35;6.00;99.90
10788;DHT22;5446;50.826;4.380;2022-12-07T11:03:28;6.10;99.90
10788;DHT22;5446;50.826;4.380;2022-12-07T11:09:12;6.30;99.90
10788;DHT22;5446;50.826;4.380;2022-12-07T11:11:53;6.30;99.90
10788;DHT22;5446;50.826;4.380;2022-12-07T11:14:29;6.30;99.90
10788;DHT22;5446;50.826;4.380;2022-12-07T11:17:01;6.40;99.90
10788;DHT22;5446;50.826;4.380;2022-12-07T11:28:41;6.20;99.90
10788;DHT22;5446;50.826;4.380;2022-12-07T11:31:14;6.20;99.90
10788;DHT22;5446;50.826;4.380;2022-12-07T11:38:55;6.10;99.90
10788;DHT22;5446;50.826;4.380;2022-12-07T11:41:28;6.00;99.90
10788;DHT22;5446;50.826;4.380;2022-12-07T11:46:43;6.00;99.90
10788;DHT22;5446;50.826;4.380;2022-12-07T11:51:54;6.00;99.90
10788;DHT22;5446;50.826;4.380;2022-12-07T11:54:30;6.00;99.90
10788;DHT22;5446;50.826;4.380;2022-12-07T11:57:03;6.00;99.90
10788;DHT22;5446;50.826;4.380;2022-12-07T11:59:36;6.10;99.90
10788;DHT22;5446;50.826;4.380;2022-12-07T12:02:15;6.10;99.90
10788;DHT22;5446;50.826;4.380;2022-12-07T12:04:50;6.20;99.90
10788;DHT22;5446;50.826;4.380;2022-12-07T12:07:21;6.20;99.90
10788;DHT22;5446;50.826;4.380;2022-12-07T12:12:37;6.30;99.90
10788;DHT22;5446;50.826;4.380;2022-12-07T12:15:25;6.30;99.90
10788;DHT22;5446;50.826;4.380;2022-12-07T12:18:27;6.40;99.90
10788;DHT22;5446;50.826;4.380;2022-12-07T12:21:06;6.40;99.90
10788;DHT22;5446;50.826;4.380;2022-12-07T12:23:41;6.30;99.90
10788;DHT22;5446;50.826;4.380;2022-12-07T12:28:54;6.40;99.90
10788;DHT22;5446;50.826;4.380;2022-12-07T12:33:52;6.40;99.90
10788;DHT22;5446;50.826;4.380;2022-12-07T12:46:57;6.30;99.90
10788;DHT22;5446;50.826;4.380;2022-12-07T12:51:55;6.30;99.90
10788;DHT22;5446;50.826;4.380;2022-12-07T13:02:31;6.50;99.90
10788;DHT22;5446;50.826;4.380;2022-12-07T13:15:43;6.90;99.90
10788;DHT22;5446;50.826;4.380;2022-12-07T13:26:21;6.90;99.90
10788;DHT22;5446;50.826;4.380;2022-12-07T13:31:44;6.90;99.90
10788;DHT22;5446;50.826;4.380;2022-12-07T13:37:25;7.00;99.90
10788;DHT22;5446;50.826;4.380;2022-12-07T13:39:59;7.00;99.90
10788;DHT22;5446;50.826;4.380;2022-12-07T13:42:30;6.90;99.90
10788;DHT22;5446;50.826;4.380;2022-12-07T13:44:58;6.90;99.90
10788;DHT22;5446;50.826;4.380;2022-12-07T13:47:36;7.00;99.90
10788;DHT22;5446;50.826;4.380;2022-12-07T13:50:28;7.00;99.90
10788;DHT22;5446;50.826;4.380;2022-12-07T13:52:59;7.00;99.90
10788;DHT22;5446;50.826;4.380;2022-12-07T13:55:25;7.00;99.90
10788;DHT22;5446;50.826;4.380;2022-12-07T13:57:53;6.90;99.90
10788;DHT22;5446;50.826;4.380;2022-12-07T14:00:25;6.90;99.90
10788;DHT22;5446;50.826;4.380;2022-12-07T14:05:39;6.80;99.90
10788;DHT22;5446;50.826;4.380;2022-12-07T14:10:53;6.70;99.90
10788;DHT22;5446;50.826;4.380;2022-12-07T14:13:33;6.80;99.90
10788;DHT22;5446;50.826;4.380;2022-12-07T14:16:03;6.70;99.90
10788;DHT22;5446;50.826;4.380;2022-12-07T14:18:37;6.60;99.90
10788;DHT22;5446;50.826;4.380;2022-12-07T14:21:24;6.60;99.90
10788;DHT22;5446;50.826;4.380;2022-12-07T14:24:11;6.50;99.90
10788;DHT22;5446;50.826;4.380;2022-12-07T14:26:38;6.50;99.90
10788;DHT22;5446;50.826;4.380;2022-12-07T14:31:56;6.40;99.90
10788;DHT22;5446;50.826;4.380;2022-12-07T14:34:23;6.30;99.90
10788;DHT22;5446;50.826;4.380;2022-12-07T14:36:50;6.30;99.90
10788;DHT22;5446;50.826;4.380;2022-12-07T14:39:16;6.20;99.90
10788;DHT22;5446;50.826;4.380;2022-12-07T14:41:43;6.20;99.90
10788;DHT22;5446;50.826;4.380;2022-12-07T14:44:19;6.10;99.90
10788;DHT22;5446;50.826;4.380;2022-12-07T14:46:46;6.20;99.90
10788;DHT22;5446;50.826;4.380;2022-12-07T14:49:12;6.10;99.90
10788;DHT22;5446;50.826;4.380;2022-12-07T14:51:39;5.90;99.90
10788;DHT22;5446;50.826;4.380;2022-12-07T14:54:11;5.80;99.90
10788;DHT22;5446;50.826;4.380;2022-12-07T14:56:42;5.70;99.90
10788;DHT22;5446;50.826;4.380;2022-12-07T14:59:10;5.70;99.90
10788;DHT22;5446;50.826;4.380;2022-12-07T15:01:36;5.70;99.90
10788;DHT22;5446;50.826;4.380;2022-12-07T15:04:02;5.80;99.90
10788;DHT22;5446;50.826;4.380;2022-12-07T15:06:27;5.80;99.90
10788;DHT22;5446;50.826;4.380;2022-12-07T15:08:53;5.80;99.90
10788;DHT22;5446;50.826;4.380;2022-12-07T15:11:20;5.80;99.90
10788;DHT22;5446;50.826;4.380;2022-12-07T15:13:46;5.70;99.90
10788;DHT22;5446;50.826;4.380;2022-12-07T15:16:31;5.70;99.90
10788;DHT22;5446;50.826;4.380;2022-12-07T15:18:56;5.80;99.90
10788;DHT22;5446;50.826;4.380;2022-12-07T15:21:22;5.80;99.90
10788;DHT22;5446;50.826;4.380;2022-12-07T15:23:48;5.80;99.90
10788;DHT22;5446;50.826;4.380;2022-12-07T15:26:14;5.80;99.90
10788;DHT22;5446;50.826;4.380;2022-12-07T15:28:40;5.90;99.90
10788;DHT22;5446;50.826;4.380;2022-12-07T15:31:13;5.80;99.90
10788;DHT22;5446;50.826;4.380;2022-12-07T15:33:39;5.90;99.90
10788;DHT22;5446;50.826;4.380;2022-12-07T15:36:06;5.90;99.90
10788;DHT22;5446;50.826;4.380;2022-12-07T15:38:31;5.90;99.90
10788;DHT22;5446;50.826;4.380;2022-12-07T15:40:57;5.90;99.90
10788;DHT22;5446;50.826;4.380;2022-12-07T15:43:23;5.90;99.90
10788;DHT22;5446;50.826;4.380;2022-12-07T15:46:07;5.90;99.90
10788;DHT22;5446;50.826;4.380;2022-12-07T15:48:33;5.90;99.90
10788;DHT22;5446;50.826;4.380;2022-12-07T15:51:06;5.80;99.90
10788;DHT22;5446;50.826;4.380;2022-12-07T15:53:33;5.80;99.90
10788;DHT22;5446;50.826;4.380;2022-12-07T15:55:59;5.80;99.90
10788;DHT22;5446;50.826;4.380;2022-12-07T15:58:25;5.80;99.90
10788;DHT22;5446;50.826;4.380;2022-12-07T16:00:51;5.70;99.90
10788;DHT22;5446;50.826;4.380;2022-12-07T16:03:17;5.70;99.90
10788;DHT22;5446;50.826;4.380;2022-12-07T16:05:51;5.60;99.90
10788;DHT22;5446;50.826;4.380;2022-12-07T16:08:17;5.60;99.90
10788;DHT22;5446;50.826;4.380;2022-12-07T16:10:43;5.60;99.90
10788;DHT22;5446;50.826;4.380;2022-12-07T16:13:10;5.70;99.90
10788;DHT22;5446;50.826;4.380;2022-12-07T16:15:40;5.60;99.90
10788;DHT22;5446;50.826;4.380;2022-12-07T16:18:06;5.70;99.90
10788;DHT22;5446;50.826;4.380;2022-12-07T16:20:31;5.60;99.90
10788;DHT22;5446;50.826;4.380;2022-12-07T16:22:58;5.60;99.90
10788;DHT22;5446;50.826;4.380;2022-12-07T16:25:24;5.60;99.90
10788;DHT22;5446;50.826;4.380;2022-12-07T16:27:51;5.60;99.90
10788;DHT22;5446;50.826;4.380;2022-12-07T16:30:18;5.50;99.90
10788;DHT22;5446;50.826;4.380;2022-12-07T16:32:43;5.50;99.90
10788;DHT22;5446;50.826;4.380;2022-12-07T16:35:10;5.50;99.90
10788;DHT22;5446;50.826;4.380;2022-12-07T16:37:36;5.50;99.90
10788;DHT22;5446;50.826;4.380;2022-12-07T16:40:03;5.40;99.90
10788;DHT22;5446;50.826;4.380;2022-12-07T16:42:32;5.50;99.90
10788;DHT22;5446;50.826;4.380;2022-12-07T16:44:59;5.50;99.90
10788;DHT22;5446;50.826;4.380;2022-12-07T16:47:25;5.50;99.90
10788;DHT22;5446;50.826;4.380;2022-12-07T16:49:51;5.40;99.90
10788;DHT22;5446;50.826;4.380;2022-12-07T16:52:20;5.50;99.90
10788;DHT22;5446;50.826;4.380;2022-12-07T16:54:46;5.50;99.90
10788;DHT22;5446;50.826;4.380;2022-12-07T16:57:12;5.50;99.90
10788;DHT22;5446;50.826;4.380;2022-12-07T16:59:38;5.50;99.90
10788;DHT22;5446;50.826;4.380;2022-12-07T17:02:04;5.50;99.90
10788;DHT22;5446;50.826;4.380;2022-12-07T17:04:32;5.50;99.90
10788;DHT22;5446;50.826;4.380;2022-12-07T17:06:58;5.60;99.90
10788;DHT22;5446;50.826;4.380;2022-12-07T17:09:24;5.60;99.90
10788;DHT22;5446;50.826;4.380;2022-12-07T17:11:50;5.60;99.90
10788;DHT22;5446;50.826;4.380;2022-12-07T17:14:16;5.60;99.90
10788;DHT22;5446;50.826;4.380;2022-12-07T17:17:01;5.50;99.90
10788;DHT22;5446;50.826;4.380;2022-12-07T17:19:26;5.50;99.90
10788;DHT22;5446;50.826;4.380;2022-12-07T17:21:52;5.50;99.90
10788;DHT22;5446;50.826;4.380;2022-12-07T17:24:18;5.60;99.90
10788;DHT22;5446;50.826;4.380;2022-12-07T17:26:45;5.60;99.90
10788;DHT22;5446;50.826;4.380;2022-12-07T17:29:12;5.60;99.90
10788;DHT22;5446;50.826;4.380;2022-12-07T17:31:38;5.60;99.90
10788;DHT22;5446;50.826;4.380;2022-12-07T17:34:08;5.50;99.90
10788;DHT22;5446;50.826;4.380;2022-12-07T17:36:35;5.50;99.90
10788;DHT22;5446;50.826;4.380;2022-12-07T17:39:01;5.50;99.90
10788;DHT22;5446;50.826;4.380;2022-12-07T17:41:28;5.50;99.90
10788;DHT22;5446;50.826;4.380;2022-12-07T17:44:18;5.50;99.90
10788;DHT22;5446;50.826;4.380;2022-12-07T17:46:47;5.50;99.90
10788;DHT22;5446;50.826;4.380;2022-12-07T17:49:13;5.50;99.90
10788;DHT22;5446;50.826;4.380;2022-12-07T17:51:39;5.50;99.90
10788;DHT22;5446;50.826;4.380;2022-12-07T17:54:23;5.50;99.90
10788;DHT22;5446;50.826;4.380;2022-12-07T17:56:49;5.50;99.90
10788;DHT22;5446;50.826;4.380;2022-12-07T17:59:15;5.50;99.90
10788;DHT22;5446;50.826;4.380;2022-12-07T18:01:41;5.50;99.90
10788;DHT22;5446;50.826;4.380;2022-12-07T18:04:08;5.50;99.90
10788;DHT22;5446;50.826;4.380;2022-12-07T18:06:34;5.50;99.90
10788;DHT22;5446;50.826;4.380;2022-12-07T18:09:00;5.50;99.90
10788;DHT22;5446;50.826;4.380;2022-12-07T18:11:26;5.50;99.90
10788;DHT22;5446;50.826;4.380;2022-12-07T18:13:51;5.40;99.90
10788;DHT22;5446;50.826;4.380;2022-12-07T18:16:19;5.40;99.90
10788;DHT22;5446;50.826;4.380;2022-12-07T18:18:46;5.40;99.90
10788;DHT22;5446;50.826;4.380;2022-12-07T18:21:17;5.40;99.90
10788;DHT22;5446;50.826;4.380;2022-12-07T18:23:45;5.40;99.90
10788;DHT22;5446;50.826;4.380;2022-12-07T18:26:11;5.40;99.90
10788;DHT22;5446;50.826;4.380;2022-12-07T18:28:41;5.40;99.90
10788;DHT22;5446;50.826;4.380;2022-12-07T18:31:07;5.40;99.90
10788;DHT22;5446;50.826;4.380;2022-12-07T18:33:33;5.30;99.90
10788;DHT22;5446;50.826;4.380;2022-12-07T18:36:00;5.30;99.90
10788;DHT22;5446;50.826;4.380;2022-12-07T18:38:26;5.20;99.90
10788;DHT22;5446;50.826;4.380;2022-12-07T18:40:53;5.30;99.90
10788;DHT22;5446;50.826;4.380;2022-12-07T18:43:19;5.20;99.90